KRHV/RHV METAR and TAF weather

Enter ICAO airport designator
Station Type Date Time Source
KRHV METAR 2021/03/01 21:47 UTC NOAA

KRHV 012147Z 14009KT 10SM SKC 21/M06 A3008


Station Type Date Time Source
KRHV Decoded METAR 2021/03/01 21:47 UTC NOAA

San Jose / Reid / Hillv, CA, United States (KRHV) 37-20N 121-49W
Mar 01, 2021 - 04:47 PM EST / 2021.03.01 2147 UTC
Wind: from the SE (140 degrees) at 10 MPH (9 KT):0
Visibility: 10 mile(s):0
Sky conditions: clear
Temperature: 69 F (21 C)
Dew Point: 21 F (-6 C)
Relative Humidity: 15%
Pressure (altimeter): 30.08 in. Hg (1018 hPa)
ob: KRHV 012147Z 14009KT 10SM SKC 21/M06 A3008
cycle: 22

Station Type Date Time Source
KRHV TAF UTC NOAA

Error!

Example: see airport list